Time;durP1;ratioP1;P1;durP2;ratioP2;P2;SDS_P1;SDS_P2;PMS_P1;PMS_P2;Temp;Humidity;BMP_temperature;BMP_pressure;BME280_temperature;BME280_humidity;BME280_pressure;Samples;Min_cycle;Max_cycle;Signal;HPM_P1;HPM_P2
2022/04/05 00:00:27;;;;;;;23.38;13.00;;;10.30;99.90;;;;;;5078901;28;25069;-75
2022/04/05 00:02:52;;;;;;;24.75;13.80;;;10.40;99.90;;;;;;5085062;28;25087;-76
2022/04/05 00:05:18;;;;;;;27.85;13.13;;;10.30;99.90;;;;;;5095555;28;25084;-78
2022/04/05 00:07:44;;;;;;;27.80;12.80;;;10.30;99.90;;;;;;5090535;28;25078;-74
2022/04/05 00:10:09;;;;;;;29.25;14.57;;;10.40;99.90;;;;;;5089460;28;25107;-75
2022/04/05 00:12:35;;;;;;;34.85;15.32;;;10.30;99.90;;;;;;5081370;28;25074;-73
2022/04/05 00:15:00;;;;;;;35.83;15.32;;;10.30;99.90;;;;;;5069979;28;25104;-74
2022/04/05 00:17:26;;;;;;;30.08;15.57;;;10.30;99.90;;;;;;5056063;28;25063;-74
2022/04/05 00:19:52;;;;;;;40.22;16.58;;;10.30;99.90;;;;;;5078584;28;25139;-74
2022/04/05 00:22:17;;;;;;;37.90;17.48;;;10.20;99.90;;;;;;5074029;28;25097;-74
2022/04/05 00:24:43;;;;;;;39.55;16.67;;;10.20;99.90;;;;;;5083569;28;25051;-75
2022/04/05 00:27:08;;;;;;;28.40;15.73;;;10.20;99.90;;;;;;5086435;28;25073;-76
2022/04/05 00:29:34;;;;;;;30.08;16.63;;;10.20;99.90;;;;;;5085440;28;25065;-77
2022/04/05 00:32:00;;;;;;;34.65;16.58;;;10.10;99.90;;;;;;5079044;28;25072;-72
2022/04/05 00:34:25;;;;;;;39.25;17.17;;;10.10;99.90;;;;;;5064978;28;25050;-75
2022/04/05 00:36:52;;;;;;;38.53;16.50;;;10.20;99.90;;;;;;5079834;28;25063;-73
2022/04/05 00:39:18;;;;;;;36.50;16.02;;;10.20;99.90;;;;;;5073125;28;25064;-73
2022/04/05 00:41:47;;;;;;;28.58;18.40;;;10.20;99.90;;;;;;5072582;28;25076;-74
2022/04/05 00:44:13;;;;;;;28.90;16.70;;;10.20;99.90;;;;;;5072527;28;25066;-75
2022/04/05 00:46:38;;;;;;;34.45;17.33;;;10.20;99.90;;;;;;5061129;28;25156;-74
2022/04/05 00:49:04;;;;;;;36.15;16.88;;;10.20;99.90;;;;;;5072870;28;25069;-74
2022/04/05 00:51:30;;;;;;;32.92;19.05;;;10.20;99.90;;;;;;5072453;28;25084;-74
2022/04/05 00:53:59;;;;;;;28.90;17.88;;;10.20;99.90;;;;;;5072413;28;25052;-75
2022/04/05 00:56:27;;;;;;;23.73;18.00;;;10.20;99.90;;;;;;5072506;28;25158;-77
2022/04/05 00:58:54;;;;;;;31.60;19.00;;;10.20;99.90;;;;;;5073558;28;25117;-73
2022/04/05 01:01:25;;;;;;;32.55;18.40;;;10.20;99.90;;;;;;5070676;28;25113;-75
2022/04/05 01:03:53;;;;;;;31.88;16.85;;;10.20;99.90;;;;;;5056684;28;25068;-75
2022/04/05 01:06:25;;;;;;;31.45;18.15;;;10.20;99.90;;;;;;5071327;28;25080;-76
2022/04/05 01:08:50;;;;;;;35.90;20.45;;;10.20;99.90;;;;;;5071673;28;25125;-76
2022/04/05 01:11:16;;;;;;;43.05;20.60;;;10.20;99.90;;;;;;5069880;28;25162;-72
2022/04/05 01:13:42;;;;;;;34.38;18.20;;;10.10;99.90;;;;;;5072890;28;25060;-74
2022/04/05 01:16:09;;;;;;;31.88;17.95;;;10.20;99.90;;;;;;5075174;28;25104;-75
2022/04/05 01:18:35;;;;;;;34.03;20.13;;;10.20;99.90;;;;;;5081328;28;25072;-75
2022/04/05 01:21:01;;;;;;;32.65;19.50;;;10.20;99.90;;;;;;5088253;28;25090;-74
2022/04/05 01:23:26;;;;;;;31.67;18.90;;;10.10;99.90;;;;;;5073979;28;25067;-73
2022/04/05 01:25:52;;;;;;;37.22;21.25;;;10.10;99.90;;;;;;5055091;28;25075;-74
2022/04/05 01:28:19;;;;;;;40.90;22.02;;;10.10;99.90;;;;;;5071771;28;25053;-74
2022/04/05 01:30:45;;;;;;;37.97;21.90;;;10.20;99.90;;;;;;5075319;28;25120;-75
2022/04/05 01:33:11;;;;;;;58.35;24.40;;;10.00;99.90;;;;;;5066753;28;25053;-74
2022/04/05 01:35:36;;;;;;;40.97;24.45;;;10.10;99.90;;;;;;5070887;28;25051;-74
2022/04/05 01:38:07;;;;;;;46.15;24.67;;;10.00;99.90;;;;;;5071548;28;25152;-74
2022/04/05 01:40:32;;;;;;;46.97;23.75;;;10.00;99.90;;;;;;5053222;28;25148;-74
2022/04/05 01:42:58;;;;;;;50.00;24.58;;;9.90;99.90;;;;;;5072010;28;25068;-76
2022/04/05 01:45:24;;;;;;;51.28;24.13;;;9.80;99.90;;;;;;5073206;28;25058;-74
2022/04/05 01:47:49;;;;;;;44.03;24.55;;;9.80;99.90;;;;;;5072101;28;25097;-74
2022/04/05 01:50:15;;;;;;;39.22;22.98;;;9.80;99.90;;;;;;5054839;28;25078;-75
2022/04/05 01:52:41;;;;;;;46.95;24.58;;;9.90;99.90;;;;;;5072287;28;25069;-74
2022/04/05 01:55:07;;;;;;;39.10;23.30;;;9.90;99.90;;;;;;5071137;28;25160;-73
2022/04/05 01:57:33;;;;;;;48.17;23.08;;;9.80;99.90;;;;;;5073159;28;25094;-74
2022/04/05 01:59:58;;;;;;;39.38;21.52;;;9.70;99.90;;;;;;5070276;28;25093;-74
2022/04/05 02:02:24;;;;;;;44.95;23.50;;;9.70;99.90;;;;;;5075243;28;25140;-74
2022/04/05 02:04:50;;;;;;;39.67;22.80;;;9.90;99.90;;;;;;5072573;28;25079;-72
2022/04/05 02:07:17;;;;;;;43.13;24.35;;;9.80;99.90;;;;;;5072210;28;25102;-73
2022/04/05 02:09:44;;;;;;;41.80;24.58;;;10.00;99.90;;;;;;5070934;28;25086;-73
2022/04/05 02:12:10;;;;;;;45.88;26.92;;;9.90;99.90;;;;;;5069660;28;25069;-73
2022/04/05 02:14:37;;;;;;;48.97;28.77;;;9.70;99.90;;;;;;5062450;28;25118;-73
2022/04/05 02:17:05;;;;;;;47.88;29.63;;;9.90;99.90;;;;;;5063900;28;25097;-73
2022/04/05 02:19:31;;;;;;;54.90;29.92;;;9.70;99.90;;;;;;5078128;28;25066;-73
2022/04/05 02:21:57;;;;;;;56.08;33.17;;;9.80;99.90;;;;;;5077708;28;25177;-73
2022/04/05 02:24:23;;;;;;;58.88;31.67;;;9.80;99.90;;;;;;5070633;28;25059;-74
2022/04/05 02:26:49;;;;;;;56.55;29.40;;;9.80;99.90;;;;;;5070014;28;25106;-74
2022/04/05 02:29:15;;;;;;;62.92;31.23;;;9.80;99.90;;;;;;5070099;28;25098;-73
2022/04/05 02:31:41;;;;;;;52.58;27.38;;;10.10;99.90;;;;;;5069616;28;25143;-73
2022/04/05 02:34:07;;;;;;;60.28;26.90;;;10.00;99.90;;;;;;5050674;28;25054;-73
2022/04/05 02:36:33;;;;;;;59.13;27.20;;;9.90;99.90;;;;;;5051921;28;25055;-71
2022/04/05 02:39:00;;;;;;;48.67;26.52;;;9.80;99.90;;;;;;5071030;28;25133;-74
2022/04/05 02:41:26;;;;;;;46.70;25.45;;;9.90;99.90;;;;;;5075627;28;25046;-75
2022/04/05 02:43:52;;;;;;;56.65;24.83;;;9.60;99.90;;;;;;5077226;28;25067;-73
2022/04/05 02:46:18;;;;;;;45.40;24.63;;;9.90;99.90;;;;;;5075864;28;25066;-72
2022/04/05 02:48:45;;;;;;;54.88;25.75;;;9.80;99.90;;;;;;5074031;28;25089;-75
2022/04/05 02:51:14;;;;;;;57.80;25.63;;;9.80;99.90;;;;;;5055401;28;25106;-73
2022/04/05 02:53:40;;;;;;;58.00;25.35;;;9.90;99.90;;;;;;5069758;28;25054;-74
2022/04/05 02:56:07;;;;;;;51.83;26.40;;;9.90;99.90;;;;;;5071463;28;25079;-73
2022/04/05 02:58:34;;;;;;;59.03;25.98;;;9.60;99.90;;;;;;5053066;28;25088;-72
2022/04/05 03:01:00;;;;;;;59.17;28.17;;;10.00;99.90;;;;;;5070940;28;25057;-71
2022/04/05 03:03:25;;;;;;;52.80;27.30;;;10.10;99.90;;;;;;5070646;28;25061;-74
2022/04/05 03:05:51;;;;;;;57.45;29.08;;;10.00;99.90;;;;;;5071619;28;25090;-72
2022/04/05 03:08:17;;;;;;;53.05;28.23;;;9.60;99.90;;;;;;5052873;28;25044;-75
2022/04/05 03:10:42;;;;;;;56.63;27.48;;;10.10;99.90;;;;;;5050271;28;25103;-71
2022/04/05 03:13:08;;;;;;;57.15;25.35;;;9.70;99.90;;;;;;5067454;28;25134;-70
2022/04/05 03:15:34;;;;;;;44.08;22.80;;;10.00;99.90;;;;;;5067969;28;25088;-72
2022/04/05 03:17:59;;;;;;;46.00;22.90;;;9.60;99.90;;;;;;5068300;28;25054;-70
2022/04/05 03:20:25;;;;;;;55.47;23.67;;;9.90;99.90;;;;;;5069999;28;25058;-70
2022/04/05 03:22:53;;;;;;;53.85;22.98;;;9.60;99.90;;;;;;5049650;28;25092;-70
2022/04/05 03:25:19;;;;;;;46.63;22.02;;;9.80;99.90;;;;;;5049854;28;25140;-72
2022/04/05 03:27:45;;;;;;;44.78;21.05;;;9.60;99.90;;;;;;5067000;28;25151;-72
2022/04/05 03:30:12;;;;;;;46.33;23.05;;;9.60;99.90;;;;;;5067525;28;25073;-70
2022/04/05 03:32:38;;;;;;;43.42;21.10;;;9.80;99.90;;;;;;5062972;28;25080;-73
2022/04/05 03:35:05;;;;;;;55.70;22.02;;;9.60;99.90;;;;;;5067847;28;25091;-74
2022/04/05 03:37:31;;;;;;;46.50;19.92;;;9.90;99.90;;;;;;5069282;28;25076;-73
2022/04/05 03:39:58;;;;;;;48.35;20.30;;;9.60;99.90;;;;;;5051438;28;25053;-74
2022/04/05 03:42:23;;;;;;;55.05;21.30;;;9.80;99.90;;;;;;5051947;28;25096;-73
2022/04/05 03:44:49;;;;;;;42.70;21.27;;;9.60;99.90;;;;;;5054089;28;25154;-73
2022/04/05 03:47:15;;;;;;;44.63;20.65;;;9.90;99.90;;;;;;5057267;28;25057;-74
2022/04/05 03:49:41;;;;;;;46.15;19.27;;;9.60;99.90;;;;;;5053463;28;25069;-72
2022/04/05 03:52:07;;;;;;;41.90;20.27;;;10.00;99.90;;;;;;5059229;28;25053;-75
2022/04/05 03:54:32;;;;;;;41.25;20.95;;;9.90;99.90;;;;;;5045237;28;25070;-74
2022/04/05 03:56:58;;;;;;;41.53;19.27;;;9.60;99.90;;;;;;5053291;28;25048;-73
2022/04/05 03:59:24;;;;;;;49.00;18.77;;;9.60;99.90;;;;;;5053265;28;25138;-75
2022/04/05 04:01:49;;;;;;;43.03;19.60;;;9.70;99.90;;;;;;5037126;28;25130;-74
2022/04/05 04:04:15;;;;;;;49.65;20.00;;;9.80;99.90;;;;;;5052890;28;25064;-74
2022/04/05 04:06:40;;;;;;;44.30;19.77;;;9.60;99.90;;;;;;5070494;28;25074;-75
2022/04/05 04:09:06;;;;;;;35.63;16.48;;;9.60;99.90;;;;;;5071798;28;25080;-74
2022/04/05 04:11:31;;;;;;;42.55;18.58;;;9.90;99.90;;;;;;5053563;28;25070;-73
2022/04/05 04:13:58;;;;;;;44.60;18.40;;;10.00;99.90;;;;;;5066002;28;25054;-73
2022/04/05 04:16:24;;;;;;;39.08;17.10;;;9.70;99.90;;;;;;5070476;28;25062;-72
2022/04/05 04:18:50;;;;;;;43.75;18.83;;;9.70;99.90;;;;;;5072936;28;25084;-73
2022/04/05 04:21:15;;;;;;;41.47;19.00;;;9.80;99.90;;;;;;5078089;28;25072;-73
2022/04/05 04:23:41;;;;;;;39.95;17.83;;;10.10;99.90;;;;;;5072338;28;25103;-72
2022/04/05 04:26:06;;;;;;;37.78;18.25;;;10.10;99.90;;;;;;5054981;28;25041;-72
2022/04/05 04:28:32;;;;;;;35.22;18.02;;;9.70;99.90;;;;;;5069609;28;25058;-73
2022/04/05 04:30:58;;;;;;;39.35;18.00;;;9.70;99.90;;;;;;5071551;28;25135;-73
2022/04/05 04:33:24;;;;;;;33.55;15.77;;;10.00;99.90;;;;;;5062182;28;25145;-74
2022/04/05 04:35:50;;;;;;;40.15;18.17;;;9.70;99.90;;;;;;5071904;28;25165;-74
2022/04/05 04:38:16;;;;;;;39.72;18.25;;;10.00;99.90;;;;;;5072859;28;25000;-74
2022/04/05 04:40:50;;;;;;;33.35;17.77;;;10.00;99.90;;;;;;5073508;28;25073;-75
2022/04/05 04:43:17;;;;;;;46.60;18.50;;;9.60;99.90;;;;;;5072760;28;25107;-74
2022/04/05 04:45:43;;;;;;;39.70;18.60;;;10.10;99.90;;;;;;5055312;28;25057;-74
2022/04/05 04:48:08;;;;;;;42.97;18.38;;;10.00;99.90;;;;;;5070752;28;25103;-75
2022/04/05 04:50:34;;;;;;;38.67;19.65;;;10.10;99.90;;;;;;5071940;28;25149;-73
2022/04/05 04:52:59;;;;;;;38.08;19.60;;;9.80;99.90;;;;;;5071989;28;25135;-75
2022/04/05 04:55:25;;;;;;;38.83;18.20;;;10.00;99.90;;;;;;5070145;28;25069;-76
2022/04/05 04:57:51;;;;;;;39.35;17.65;;;9.60;99.90;;;;;;5071203;28;25159;-72
2022/04/05 05:00:17;;;;;;;36.53;16.20;;;9.60;99.90;;;;;;5070612;28;25056;-73
2022/04/05 05:02:44;;;;;;;34.85;15.77;;;9.60;99.90;;;;;;5070339;28;25093;-76
2022/04/05 05:05:10;;;;;;;33.40;15.68;;;10.00;99.90;;;;;;5070358;28;25062;-75
2022/04/05 05:07:36;;;;;;;25.95;14.75;;;9.70;99.90;;;;;;5070187;28;25142;-73
2022/04/05 05:10:01;;;;;;;32.00;14.27;;;10.00;99.90;;;;;;5069782;28;25065;-74
2022/04/05 05:12:27;;;;;;;28.92;14.50;;;9.80;99.90;;;;;;5051473;28;25062;-74
2022/04/05 05:14:52;;;;;;;31.33;14.20;;;9.60;99.90;;;;;;5070153;28;25102;-76
2022/04/05 05:17:18;;;;;;;29.92;13.68;;;9.90;99.90;;;;;;5070029;28;25056;-74
2022/04/05 05:19:44;;;;;;;25.70;13.95;;;10.00;99.90;;;;;;5069477;28;25172;-74
2022/04/05 05:22:09;;;;;;;31.45;14.02;;;9.70;99.90;;;;;;5069983;28;25096;-74
2022/04/05 05:24:35;;;;;;;26.23;13.43;;;9.80;99.90;;;;;;5072711;28;25103;-74
2022/04/05 05:27:02;;;;;;;31.85;13.25;;;10.00;99.90;;;;;;5073306;28;25060;-75
2022/04/05 05:29:28;;;;;;;25.65;12.93;;;10.00;99.90;;;;;;5091678;28;25097;-78
2022/04/05 05:31:53;;;;;;;26.10;12.20;;;9.70;99.90;;;;;;5091199;28;25069;-73
2022/04/05 05:34:22;;;;;;;22.33;12.10;;;10.10;99.90;;;;;;5067714;28;25096;-74
2022/04/05 05:36:48;;;;;;;25.60;12.57;;;10.00;99.90;;;;;;5074082;28;25078;-75
2022/04/05 05:39:14;;;;;;;27.13;11.82;;;9.90;99.90;;;;;;5073793;28;25111;-75
2022/04/05 05:41:39;;;;;;;23.80;12.32;;;10.10;99.90;;;;;;5072162;28;25054;-74
2022/04/05 05:44:05;;;;;;;25.90;12.73;;;10.20;99.90;;;;;;5072988;28;25082;-76
2022/04/05 05:46:30;;;;;;;28.92;12.75;;;10.00;99.90;;;;;;5073391;28;25077;-75
2022/04/05 05:48:56;;;;;;;28.15;12.27;;;10.20;99.90;;;;;;5073976;28;25079;-74
2022/04/05 05:51:21;;;;;;;23.23;12.10;;;9.90;99.90;;;;;;5079894;28;25064;-75
2022/04/05 05:53:47;;;;;;;21.48;11.88;;;9.90;99.90;;;;;;5064293;28;25099;-78
2022/04/05 05:56:14;;;;;;;28.00;12.60;;;10.30;99.90;;;;;;5060700;28;25083;-76
2022/04/05 05:58:40;;;;;;;24.08;12.75;;;10.20;99.90;;;;;;5063336;28;25042;-74
2022/04/05 06:01:06;;;;;;;21.23;12.30;;;9.90;99.90;;;;;;5058701;28;25113;-75
2022/04/05 06:03:31;;;;;;;19.60;10.63;;;10.20;99.90;;;;;;5061158;28;25165;-75
2022/04/05 06:05:57;;;;;;;23.40;10.73;;;10.00;99.90;;;;;;5088750;28;25064;-76
2022/04/05 06:08:22;;;;;;;20.92;11.00;;;10.10;99.90;;;;;;5056397;28;25097;-75
2022/04/05 06:10:48;;;;;;;22.25;11.98;;;10.20;99.90;;;;;;5072755;28;25070;-77
2022/04/05 06:13:15;;;;;;;17.48;10.48;;;10.20;99.90;;;;;;5071470;28;25068;-75
2022/04/05 06:15:40;;;;;;;18.67;11.02;;;10.00;99.90;;;;;;5072829;28;25054;-76
2022/04/05 06:18:06;;;;;;;24.30;10.90;;;10.30;99.90;;;;;;5071308;28;25092;-73
2022/04/05 06:20:32;;;;;;;21.02;10.98;;;10.00;99.90;;;;;;5065765;28;25069;-72
2022/04/05 06:23:05;;;;;;;22.55;10.07;;;10.30;99.90;;;;;;5053941;28;25055;-77
2022/04/05 06:25:33;;;;;;;16.15;10.18;;;10.40;99.90;;;;;;5035341;28;25097;-76
2022/04/05 06:28:01;;;;;;;24.70;10.38;;;10.10;99.90;;;;;;5053496;28;25058;-75
2022/04/05 06:30:27;;;;;;;20.27;9.63;;;10.00;99.90;;;;;;5071149;28;25052;-76
2022/04/05 06:33:06;;;;;;;30.98;10.20;;;10.30;99.90;;;;;;5062759;28;25050;-76
2022/04/05 06:35:39;;;;;;;23.23;9.90;;;10.40;99.90;;;;;;5070713;28;25056;-76
2022/04/05 06:38:04;;;;;;;15.20;9.68;;;10.10;99.90;;;;;;5074715;28;25083;-75
2022/04/05 06:40:30;;;;;;;17.08;9.57;;;10.40;99.90;;;;;;5072574;28;25136;-76
2022/04/05 06:42:56;;;;;;;14.48;9.60;;;10.10;99.90;;;;;;5073075;28;25074;-76
2022/04/05 06:45:22;;;;;;;22.98;9.35;;;10.40;99.90;;;;;;5072043;28;25098;-76
2022/04/05 06:47:48;;;;;;;13.68;8.20;;;10.40;99.90;;;;;;5082316;28;25078;-73
2022/04/05 06:50:17;;;;;;;17.15;9.65;;;10.50;99.90;;;;;;5078306;28;25127;-75
2022/04/05 06:52:42;;;;;;;20.05;8.20;;;10.40;99.90;;;;;;5084577;28;25075;-76
2022/04/05 06:55:10;;;;;;;17.75;8.75;;;10.40;99.90;;;;;;5095308;28;25074;-76
2022/04/05 06:57:36;;;;;;;19.90;9.32;;;10.20;99.90;;;;;;5057813;28;25076;-76
2022/04/05 07:00:06;;;;;;;20.45;8.40;;;10.40;99.90;;;;;;5084384;28;25052;-77
2022/04/05 07:02:31;;;;;;;20.58;8.10;;;10.40;99.90;;;;;;5079472;28;25060;-77
2022/04/05 07:04:57;;;;;;;15.23;8.20;;;10.20;99.90;;;;;;5054497;28;25104;-74
2022/04/05 07:07:23;;;;;;;22.17;8.80;;;10.40;99.90;;;;;;5054460;28;25117;-77
2022/04/05 07:09:48;;;;;;;22.13;8.85;;;10.50;99.90;;;;;;5072425;28;25066;-73
2022/04/05 07:12:14;;;;;;;21.25;8.68;;;10.50;99.90;;;;;;5072211;28;25072;-77
2022/04/05 07:14:39;;;;;;;18.45;8.35;;;10.40;99.90;;;;;;5070161;28;25098;-77
2022/04/05 07:17:05;;;;;;;25.88;9.02;;;10.40;99.90;;;;;;5066217;28;25189;-75
2022/04/05 07:19:31;;;;;;;14.43;7.68;;;10.40;99.90;;;;;;5057944;28;25059;-76
2022/04/05 07:21:56;;;;;;;17.25;7.97;;;10.60;99.90;;;;;;5072989;28;25093;-73
2022/04/05 07:24:22;;;;;;;18.98;7.68;;;10.60;99.90;;;;;;5046012;28;25053;-75
2022/04/05 07:26:47;;;;;;;21.00;8.80;;;10.50;99.90;;;;;;5062319;28;25080;-76
2022/04/05 07:29:13;;;;;;;22.55;8.15;;;10.40;99.90;;;;;;5054503;28;25048;-77
2022/04/05 07:31:38;;;;;;;16.10;7.75;;;10.60;99.90;;;;;;5058866;28;25100;-75
2022/04/05 07:34:04;;;;;;;14.38;8.25;;;10.60;99.90;;;;;;5066232;28;25044;-75
2022/04/05 07:36:31;;;;;;;21.02;8.40;;;10.60;99.90;;;;;;5066108;28;25061;-75
2022/04/05 07:38:57;;;;;;;20.88;8.60;;;10.70;99.90;;;;;;5069672;28;25058;-73
2022/04/05 07:41:22;;;;;;;23.88;8.43;;;10.70;99.90;;;;;;5049700;28;25065;-75
2022/04/05 07:43:48;;;;;;;21.98;8.60;;;10.50;99.90;;;;;;5071184;28;25057;-74
2022/04/05 07:46:13;;;;;;;25.17;8.40;;;10.50;99.90;;;;;;5071866;28;25068;-75
2022/04/05 07:48:39;;;;;;;26.02;8.30;;;10.50;99.90;;;;;;5072665;28;25058;-75
2022/04/05 07:51:06;;;;;;;16.67;7.53;;;10.50;99.90;;;;;;5065761;28;25073;-75
2022/04/05 07:53:32;;;;;;;20.58;8.25;;;10.50;99.90;;;;;;5048866;28;25049;-76
2022/04/05 07:55:58;;;;;;;20.98;7.75;;;10.40;99.90;;;;;;5067278;28;25057;-75
2022/04/05 07:58:24;;;;;;;20.27;8.60;;;10.40;99.90;;;;;;5067827;28;25054;-75
2022/04/05 08:00:50;;;;;;;18.15;7.82;;;10.50;99.90;;;;;;5064172;28;25131;-75
2022/04/05 08:03:17;;;;;;;14.98;7.70;;;10.50;99.90;;;;;;5070874;28;25072;-75
2022/04/05 08:05:43;;;;;;;15.02;7.32;;;10.50;99.90;;;;;;5081442;28;25076;-76
2022/04/05 08:08:09;;;;;;;17.90;6.97;;;10.50;99.90;;;;;;5071867;28;25072;-75
2022/04/05 08:10:35;;;;;;;17.00;7.45;;;10.50;99.90;;;;;;5071879;28;25063;-74
2022/04/05 08:13:01;;;;;;;16.38;7.32;;;10.60;99.90;;;;;;5064960;28;25050;-76
2022/04/05 08:15:27;;;;;;;15.27;6.88;;;10.50;99.90;;;;;;5045733;28;25055;-76
2022/04/05 08:17:52;;;;;;;20.55;6.50;;;10.60;99.90;;;;;;5047893;28;25057;-78
2022/04/05 08:20:20;;;;;;;19.90;7.18;;;10.60;99.90;;;;;;5050420;28;25104;-76
2022/04/05 08:22:46;;;;;;;14.88;6.85;;;10.50;99.90;;;;;;5062347;28;25051;-75
2022/04/05 08:25:16;;;;;;;21.38;7.68;;;10.60;99.90;;;;;;5047218;28;25081;-73
2022/04/05 08:27:43;;;;;;;20.63;7.07;;;10.50;99.90;;;;;;5049428;28;25053;-77
2022/04/05 08:30:12;;;;;;;16.02;6.97;;;10.50;99.90;;;;;;5067184;28;25143;-75
2022/04/05 08:32:42;;;;;;;15.50;7.07;;;10.50;99.90;;;;;;5065171;28;25153;-74
2022/04/05 08:35:08;;;;;;;15.05;7.40;;;10.40;99.90;;;;;;5067079;28;25078;-75
2022/04/05 08:37:34;;;;;;;16.70;6.90;;;10.60;99.90;;;;;;5074983;28;25056;-76
2022/04/05 08:40:03;;;;;;;13.50;6.63;;;10.50;99.90;;;;;;5057360;28;25090;-77
2022/04/05 08:42:28;;;;;;;11.68;6.25;;;10.40;99.90;;;;;;5074322;28;25098;-77
2022/04/05 08:44:56;;;;;;;12.65;7.38;;;10.50;99.90;;;;;;5066790;28;25108;-74
2022/04/05 08:47:23;;;;;;;14.35;5.55;;;10.70;99.90;;;;;;5061338;28;25052;-77
2022/04/05 08:49:49;;;;;;;13.10;6.78;;;10.60;99.90;;;;;;5062454;28;25079;-74
2022/04/05 08:52:15;;;;;;;10.85;6.38;;;10.70;99.90;;;;;;5039505;28;25065;-75
2022/04/05 08:54:40;;;;;;;10.80;6.30;;;10.60;99.90;;;;;;5059379;28;25144;-75
2022/04/05 08:57:06;;;;;;;13.43;6.47;;;10.60;99.90;;;;;;5060897;28;25080;-75
2022/04/05 08:59:31;;;;;;;15.65;6.60;;;10.60;99.90;;;;;;5063483;28;25051;-75
2022/04/05 09:01:58;;;;;;;16.23;7.18;;;10.70;99.90;;;;;;5050738;28;25054;-74
2022/04/05 09:04:24;;;;;;;18.38;7.40;;;10.60;99.90;;;;;;5065804;28;25093;-75
2022/04/05 09:06:50;;;;;;;15.13;7.35;;;10.50;99.90;;;;;;5073847;28;25086;-74
2022/04/05 09:09:17;;;;;;;13.82;7.07;;;10.60;99.90;;;;;;5074462;28;25054;-71
2022/04/05 09:11:54;;;;;;;16.92;7.03;;;10.60;99.90;;;;;;5074226;28;25080;-77
2022/04/05 09:14:24;;;;;;;16.90;7.05;;;10.50;99.90;;;;;;5074378;28;25060;-75
2022/04/05 09:17:06;;;;;;;13.95;6.80;;;10.50;99.90;;;;;;5075852;28;25097;-75
2022/04/05 09:19:37;;;;;;;18.55;8.32;;;10.50;99.90;;;;;;5083128;28;25128;-76
2022/04/05 09:22:03;;;;;;;12.88;6.90;;;10.50;99.90;;;;;;5096556;28;25166;-77
2022/04/05 09:24:45;;;;;;;14.10;7.20;;;10.50;99.90;;;;;;5067728;28;25072;-76
2022/04/05 09:27:11;;;;;;;16.38;7.45;;;10.60;99.90;;;;;;5059732;28;25061;-74
2022/04/05 09:29:45;;;;;;;11.93;7.18;;;10.60;99.90;;;;;;5072714;28;25067;-72
2022/04/05 09:32:32;;;;;;;17.95;8.05;;;10.50;99.90;;;;;;5068018;28;25100;-72
2022/04/05 09:34:58;;;;;;;16.60;7.03;;;10.50;99.90;;;;;;5072363;28;25073;-75
2022/04/05 09:37:35;;;;;;;13.82;6.72;;;10.70;99.90;;;;;;5052865;28;25051;-76
2022/04/05 09:40:20;;;;;;;14.23;7.07;;;10.70;99.90;;;;;;5069756;28;25085;-75
2022/04/05 09:42:59;;;;;;;12.48;6.10;;;10.60;99.90;;;;;;5043868;28;25070;-72
2022/04/05 09:45:43;;;;;;;14.60;6.53;;;10.60;99.90;;;;;;5056522;28;25060;-76
2022/04/05 09:48:09;;;;;;;13.00;6.05;;;10.70;99.90;;;;;;5074194;28;25134;-76
2022/04/05 09:50:59;;;;;;;11.48;6.43;;;10.60;99.90;;;;;;5065992;28;25061;-76
2022/04/05 09:53:29;;;;;;;17.60;7.70;;;10.70;99.90;;;;;;5072898;28;25071;-74
2022/04/05 09:56:03;;;;;;;16.75;7.03;;;10.70;99.90;;;;;;5053172;28;25055;-76
2022/04/05 09:58:29;;;;;;;16.27;6.70;;;10.80;99.90;;;;;;5053781;28;25060;-73
2022/04/05 10:01:07;;;;;;;16.73;7.03;;;10.90;99.90;;;;;;5035926;28;25066;-72
2022/04/05 10:03:34;;;;;;;18.65;7.80;;;10.90;99.90;;;;;;5053077;28;25115;-75
2022/04/05 10:06:02;;;;;;;16.10;6.90;;;10.90;99.90;;;;;;5036084;28;25073;-74
2022/04/05 10:08:33;;;;;;;11.27;6.18;;;10.90;99.90;;;;;;5052141;28;25078;-73
2022/04/05 10:10:59;;;;;;;17.55;6.55;;;10.90;99.90;;;;;;5035984;28;25176;-73
2022/04/05 10:13:26;;;;;;;20.98;7.40;;;10.90;99.90;;;;;;5052506;28;25064;-73
2022/04/05 10:15:53;;;;;;;16.13;8.02;;;10.90;99.90;;;;;;5053677;28;25072;-73
2022/04/05 10:18:20;;;;;;;15.88;6.90;;;10.90;99.90;;;;;;5042064;28;25076;-74
2022/04/05 10:20:49;;;;;;;17.52;6.93;;;10.90;99.90;;;;;;5098396;28;25072;-76
2022/04/05 10:23:20;;;;;;;12.45;6.65;;;10.90;99.90;;;;;;5070408;28;25073;-75
2022/04/05 10:25:51;;;;;;;17.40;8.25;;;10.90;99.90;;;;;;5052153;28;25072;-74
2022/04/05 10:28:19;;;;;;;14.18;7.18;;;11.00;99.90;;;;;;5054926;28;25073;-72
2022/04/05 10:30:58;;;;;;;14.88;7.40;;;10.90;99.90;;;;;;5058255;28;25081;-74
2022/04/05 10:33:58;;;;;;;18.00;7.28;;;11.00;99.90;;;;;;5058795;28;25059;-74
2022/04/05 10:36:24;;;;;;;13.93;7.47;;;11.10;99.90;;;;;;5051063;28;25051;-74
2022/04/05 10:39:19;;;;;;;10.32;7.22;;;11.10;99.90;;;;;;5047567;28;25103;-73
2022/04/05 10:42:11;;;;;;;21.65;7.82;;;11.20;99.90;;;;;;5063056;28;25072;-73
2022/04/05 10:44:47;;;;;;;12.00;7.03;;;11.20;99.90;;;;;;5064765;28;25483;-74
2022/04/05 10:47:14;;;;;;;17.60;8.25;;;11.20;99.90;;;;;;5057249;28;25084;-75
2022/04/05 10:49:47;;;;;;;15.80;7.35;;;11.20;99.90;;;;;;5054135;28;25057;-75
2022/04/05 10:52:27;;;;;;;17.45;6.97;;;11.30;99.90;;;;;;5046452;28;25072;-73
2022/04/05 10:55:08;;;;;;;18.48;7.30;;;11.20;99.90;;;;;;5056611;28;25091;-74
2022/04/05 10:57:38;;;;;;;13.57;7.40;;;11.20;99.90;;;;;;5040593;28;25080;-75
2022/04/05 11:00:08;;;;;;;12.27;7.68;;;11.30;99.90;;;;;;5048901;28;25077;-74
2022/04/05 11:02:43;;;;;;;16.95;8.15;;;11.20;99.90;;;;;;5061145;28;25119;-75
2022/04/05 11:05:18;;;;;;;14.18;6.95;;;11.30;99.90;;;;;;5064957;28;25129;-73
2022/04/05 11:07:52;;;;;;;13.10;7.55;;;11.40;99.90;;;;;;5062656;28;25071;-74
2022/04/05 11:10:25;;;;;;;17.13;9.13;;;11.50;99.90;;;;;;5051838;28;25106;-74
2022/04/05 11:12:50;;;;;;;;;;;11.50;99.90;;;;;;5070293;28;25059;-75
2022/04/05 11:15:16;;;;;;;13.05;7.40;;;11.60;99.90;;;;;;5069209;28;25129;-76
2022/04/05 11:17:42;;;;;;;13.02;7.07;;;11.70;99.90;;;;;;5052335;28;25080;-77
2022/04/05 11:20:10;;;;;;;13.63;7.07;;;11.70;99.90;;;;;;5070601;28;25084;-75
2022/04/05 11:22:37;;;;;;;10.68;7.72;;;11.60;99.90;;;;;;5050298;28;25147;-74
2022/04/05 11:25:09;;;;;;;12.38;7.07;;;11.50;99.90;;;;;;5068958;28;25077;-78
2022/04/05 11:27:44;;;;;;;9.20;7.03;;;11.50;99.90;;;;;;5050032;28;25071;-75
2022/04/05 11:30:27;;;;;;;13.93;7.13;;;11.60;99.90;;;;;;5083938;28;25158;-76
2022/04/05 11:33:12;;;;;;;12.60;6.85;;;11.60;99.90;;;;;;5093524;28;25074;-74
2022/04/05 11:35:43;;;;;;;11.05;7.82;;;11.60;99.90;;;;;;5088163;28;25087;-76
2022/04/05 11:38:26;;;;;;;16.90;7.65;;;11.70;99.90;;;;;;5100975;28;25071;-75
2022/04/05 11:41:23;;;;;;;10.15;6.93;;;11.80;99.90;;;;;;5070377;28;25073;-75
2022/04/05 11:43:57;;;;;;;9.93;7.18;;;11.80;99.90;;;;;;5070268;28;25074;-79
2022/04/05 11:46:36;;;;;;;10.15;6.80;;;11.90;99.90;;;;;;5088488;28;25060;-75
2022/04/05 11:49:14;;;;;;;10.15;7.50;;;12.00;99.90;;;;;;5070165;28;25129;-76
2022/04/05 11:51:45;;;;;;;11.35;7.53;;;12.10;99.90;;;;;;5089497;28;25074;-75
2022/04/05 11:54:13;;;;;;;12.48;7.32;;;12.00;99.90;;;;;;5048573;28;25058;-77
2022/04/05 11:56:41;;;;;;;12.45;6.88;;;12.00;99.90;;;;;;5060580;28;25098;-76
2022/04/05 11:59:09;;;;;;;8.23;6.30;;;12.00;99.90;;;;;;5033029;28;25106;-76
2022/04/05 12:01:37;;;;;;;9.73;6.80;;;12.00;99.90;;;;;;5060680;28;25051;-77
2022/04/05 12:04:14;;;;;;;14.63;7.18;;;12.10;99.90;;;;;;5045339;28;25076;-75
2022/04/05 12:06:44;;;;;;;12.63;6.88;;;12.00;99.90;;;;;;5052908;28;25091;-75
2022/04/05 12:09:13;;;;;;;11.15;7.13;;;12.00;99.90;;;;;;5051598;28;25047;-77
2022/04/05 12:11:41;;;;;;;10.45;6.65;;;12.10;99.90;;;;;;5042113;28;25080;-76
2022/04/05 12:14:18;;;;;;;11.80;6.63;;;11.90;99.90;;;;;;5039743;28;25053;-76
2022/04/05 12:17:02;;;;;;;12.80;7.47;;;12.00;99.90;;;;;;5054823;28;25047;-76
2022/04/05 12:19:37;;;;;;;11.75;6.60;;;12.00;99.90;;;;;;5054324;28;25136;-76
2022/04/05 12:22:06;;;;;;;10.85;6.90;;;11.90;99.90;;;;;;5049871;28;25062;-77
2022/04/05 12:24:41;;;;;;;9.35;6.25;;;11.90;99.90;;;;;;5058117;28;25130;-73
2022/04/05 12:27:06;;;;;;;10.43;6.28;;;11.80;99.90;;;;;;5056884;28;25080;-79
2022/04/05 12:29:39;;;;;;;10.00;6.68;;;11.80;99.90;;;;;;5041119;28;25070;-76
2022/04/05 12:32:06;;;;;;;8.75;6.50;;;11.80;99.90;;;;;;5049034;28;25048;-76
2022/04/05 12:34:33;;;;;;;8.65;6.68;;;11.80;99.90;;;;;;5050363;28;25142;-73
2022/04/05 12:37:02;;;;;;;9.70;6.82;;;11.80;99.90;;;;;;5061762;28;25093;-74
2022/04/05 12:39:41;;;;;;;10.55;7.20;;;11.80;99.30;;;;;;5061450;28;25070;-78